Time;durP1;ratioP1;P1;durP2;ratioP2;P2;SDS_P1;SDS_P2;PMS_P1;PMS_P2;Temp;Humidity;BMP_temperature;BMP_pressure;BME280_temperature;BME280_humidity;BME280_pressure;Samples;Min_cycle;Max_cycle;Signal;HPM_P1;HPM_P2
2023/06/19 00:00:15;;;;;;;;;;;;;;;22.82;55.25;100890.81;4984655;28;4008;-66
2023/06/19 00:02:43;;;;;;;;;;;;;;;22.81;55.26;100887.19;4983244;28;4123;-66
2023/06/19 00:05:10;;;;;;;;;;;;;;;22.80;55.62;100883.56;4989680;28;4528;-67
2023/06/19 00:07:36;;;;;;;;;;;;;;;22.80;55.42;100895.09;4985808;28;4028;-66
2023/06/19 00:10:03;;;;;;;;;;;;;;;22.80;55.40;100891.47;4984210;28;4189;-66
2023/06/19 00:12:30;;;;;;;;;;;;;;;22.78;55.27;100897.19;4980562;28;4286;-66
2023/06/19 00:14:56;;;;;;;;;;;;;;;22.78;55.59;100894.28;4981863;28;4081;-66
2023/06/19 00:17:25;;;;;;;;;;;;;;;22.78;55.27;100902.94;4984104;28;4059;-66
2023/06/19 00:19:52;;;;;;;;;;;;;;;22.79;55.30;100907.31;4988986;28;4109;-66
2023/06/19 00:22:18;;;;;;;;;;;;;;;22.79;55.46;100904.41;4985128;28;4179;-66
2023/06/19 00:24:45;;;;;;;;;;;;;;;22.79;55.38;100904.41;4987182;28;4018;-66
2023/06/19 00:27:12;;;;;;;;;;;;;;;22.78;55.29;100902.94;4988954;28;4099;-66
2023/06/19 00:29:39;;;;;;;;;;;;;;;22.79;55.63;100895.75;4988688;28;4444;-66
2023/06/19 00:32:06;;;;;;;;;;;;;;;22.79;55.53;100898.66;4990241;28;4162;-66
2023/06/19 00:34:33;;;;;;;;;;;;;;;22.78;55.56;100902.94;4990392;28;4179;-66
2023/06/19 00:36:59;;;;;;;;;;;;;;;22.80;55.46;100905.91;5001322;28;4343;-66
2023/06/19 00:39:27;;;;;;;;;;;;;;;22.80;55.44;100905.91;4989266;28;4089;-66
2023/06/19 00:41:53;;;;;;;;;;;;;;;22.78;55.74;100902.94;4986133;28;4232;-66
2023/06/19 00:44:20;;;;;;;;;;;;;;;22.80;55.57;100905.91;4987139;28;4541;-66
2023/06/19 00:46:46;;;;;;;;;;;;;;;22.80;55.63;100911.69;4986120;28;4151;-66
2023/06/19 00:49:13;;;;;;;;;;;;;;;22.79;55.72;100910.19;4986432;28;4182;-66
2023/06/19 00:51:39;;;;;;;;;;;;;;;22.78;55.57;100905.84;4996279;28;4120;-67
2023/06/19 00:54:06;;;;;;;;;;;;;;;22.77;55.64;100895.72;4984596;28;4128;-67
2023/06/19 00:56:34;;;;;;;;;;;;;;;22.76;55.53;100905.75;5001685;28;4174;-67
2023/06/19 00:59:00;;;;;;;;;;;;;;;22.75;55.51;100904.28;4978873;28;4544;-67
2023/06/19 01:01:27;;;;;;;;;;;;;;;22.75;55.40;100892.75;4984456;28;4038;-67
2023/06/19 01:03:55;;;;;;;;;;;;;;;22.75;55.54;100886.97;4982060;28;4233;-66
2023/06/19 01:06:23;;;;;;;;;;;;;;;22.75;55.63;100886.97;4984990;28;4027;-67
2023/06/19 01:08:56;;;;;;;;;;;;;;;22.74;55.74;100897.03;4983330;28;4174;-67
2023/06/19 01:11:26;;;;;;;;;;;;;;;22.75;55.74;100887.69;4967315;28;4270;-66
2023/06/19 01:13:54;;;;;;;;;;;;;;;22.74;55.41;100886.22;4965615;28;4367;-66
2023/06/19 01:16:20;;;;;;;;;;;;;;;22.73;55.74;100892.66;4970069;28;3987;-66
2023/06/19 01:18:46;;;;;;;;;;;;;;;22.73;55.51;100884.00;4982697;28;4149;-66
2023/06/19 01:21:13;;;;;;;;;;;;;;;22.73;55.50;100886.91;4982953;28;4120;-67
2023/06/19 01:23:40;;;;;;;;;;;;;;;22.73;55.55;100892.66;4987674;28;4197;-66
2023/06/19 01:26:07;;;;;;;;;;;;;;;22.72;55.36;100888.28;4985011;28;5055;-66
2023/06/19 01:28:39;;;;;;;;;;;;;;;22.72;55.38;100891.94;4980526;28;4046;-66
2023/06/19 01:31:06;;;;;;;;;;;;;;;22.71;55.47;100881.03;4994296;28;4025;-66
2023/06/19 01:33:32;;;;;;;;;;;;;;;22.71;55.43;100884.66;4989421;28;3953;-66
2023/06/19 01:35:59;;;;;;;;;;;;;;;22.71;55.40;100886.81;4999215;28;4093;-66
2023/06/19 01:38:26;;;;;;;;;;;;;;;22.71;55.69;100878.16;4987017;28;4151;-68
2023/06/19 01:40:53;;;;;;;;;;;;;;;22.71;55.48;100881.03;4988184;28;4241;-66
2023/06/19 01:43:19;;;;;;;;;;;;;;;22.71;55.48;100875.25;5002824;28;4462;-66
2023/06/19 01:45:46;;;;;;;;;;;;;;;22.69;55.73;100870.16;4986732;28;4189;-66
2023/06/19 01:48:13;;;;;;;;;;;;;;;22.69;55.70;100860.75;4990091;28;4151;-66
2023/06/19 01:50:39;;;;;;;;;;;;;;;22.69;55.51;100857.88;4989063;28;4214;-66
2023/06/19 01:53:06;;;;;;;;;;;;;;;22.69;55.47;100861.50;4984410;28;4113;-66
2023/06/19 01:55:32;;;;;;;;;;;;;;;22.69;55.58;100863.66;4986742;28;4038;-66
2023/06/19 01:57:59;;;;;;;;;;;;;;;22.69;55.91;100854.97;5001240;28;4088;-67
2023/06/19 02:00:25;;;;;;;;;;;;;;;22.69;55.48;100854.97;5001119;28;4145;-66
2023/06/19 02:02:51;;;;;;;;;;;;;;;22.69;55.64;100854.97;4985375;28;6413;-66
2023/06/19 02:05:18;;;;;;;;;;;;;;;22.68;55.42;100848.47;4982821;28;4181;-66
2023/06/19 02:07:44;;;;;;;;;;;;;;;22.68;55.71;100847.75;4999588;28;4114;-66
2023/06/19 02:10:11;;;;;;;;;;;;;;;22.66;55.88;100833.22;4989904;28;4029;-66
2023/06/19 02:12:37;;;;;;;;;;;;;;;22.67;55.56;100823.88;4982595;28;4139;-66
2023/06/19 02:15:04;;;;;;;;;;;;;;;22.68;55.70;100824.66;4982812;28;4050;-66
2023/06/19 02:17:31;;;;;;;;;;;;;;;22.68;55.76;100833.31;4983739;28;4347;-66
2023/06/19 02:19:57;;;;;;;;;;;;;;;22.68;55.85;100821.75;4985051;28;3909;-66
2023/06/19 02:22:23;;;;;;;;;;;;;;;22.68;55.90;100830.44;4983137;28;4208;-66
2023/06/19 02:24:52;;;;;;;;;;;;;;;22.67;55.53;100828.94;4981348;28;4558;-66
2023/06/19 02:27:19;;;;;;;;;;;;;;;22.66;55.78;100821.69;4984780;28;4499;-66
2023/06/19 02:29:45;;;;;;;;;;;;;;;22.66;55.45;100815.91;4984375;28;4103;-66
2023/06/19 02:32:12;;;;;;;;;;;;;;;22.67;55.83;100817.38;4985316;28;4113;-66
2023/06/19 02:34:38;;;;;;;;;;;;;;;22.65;55.68;100815.16;4986183;28;4055;-66
2023/06/19 02:37:05;;;;;;;;;;;;;;;22.65;55.73;100817.31;4977980;28;4159;-66
2023/06/19 02:39:31;;;;;;;;;;;;;;;22.66;55.53;100827.47;4998834;28;4153;-67
2023/06/19 02:41:58;;;;;;;;;;;;;;;22.65;55.44;100820.19;4985366;28;4170;-67
2023/06/19 02:44:27;;;;;;;;;;;;;;;22.65;55.45;100814.41;4981721;28;4064;-66
2023/06/19 02:46:54;;;;;;;;;;;;;;;22.65;55.27;100820.94;4979002;28;4360;-66
2023/06/19 02:49:20;;;;;;;;;;;;;;;22.65;55.44;100823.81;4979699;28;5440;-67
2023/06/19 02:51:46;;;;;;;;;;;;;;;22.66;55.51;100821.69;4994178;28;4152;-66
2023/06/19 02:54:13;;;;;;;;;;;;;;;22.65;55.58;100820.19;5001800;28;4145;-66
2023/06/19 02:56:39;;;;;;;;;;;;;;;22.64;55.45;100807.19;4983483;28;4163;-66
2023/06/19 02:59:06;;;;;;;;;;;;;;;22.64;55.55;100812.97;4981353;28;4169;-66
2023/06/19 03:01:33;;;;;;;;;;;;;;;22.63;55.40;100812.22;4983507;28;3959;-66
2023/06/19 03:04:00;;;;;;;;;;;;;;;22.61;55.54;100808.50;4988329;28;4169;-66
2023/06/19 03:06:26;;;;;;;;;;;;;;;22.59;55.91;100821.47;4979631;28;5440;-66
2023/06/19 03:08:53;;;;;;;;;;;;;;;22.58;55.61;100822.84;5000390;28;4128;-66
2023/06/19 03:11:20;;;;;;;;;;;;;;;22.58;55.66;100827.88;4981719;28;4102;-66
2023/06/19 03:13:47;;;;;;;;;;;;;;;22.57;55.53;100821.38;5000010;28;4213;-66
2023/06/19 03:16:14;;;;;;;;;;;;;;;22.58;55.91;100822.13;4997155;28;4221;-66
2023/06/19 03:18:42;;;;;;;;;;;;;;;22.56;55.53;100831.47;4982969;28;4134;-66
2023/06/19 03:21:08;;;;;;;;;;;;;;;22.58;55.91;100828.63;4995793;28;5033;-66
2023/06/19 03:23:35;;;;;;;;;;;;;;;22.57;55.78;100844.47;5000017;28;4284;-66
2023/06/19 03:26:01;;;;;;;;;;;;;;;22.57;55.64;100850.25;4979044;28;4102;-66
2023/06/19 03:28:28;;;;;;;;;;;;;;;22.59;55.64;100850.31;4984717;28;4346;-66
2023/06/19 03:30:55;;;;;;;;;;;;;;;22.57;55.86;100838.69;5003202;28;4226;-66
2023/06/19 03:33:23;;;;;;;;;;;;;;;22.61;55.62;100843.88;4984929;28;4155;-66
2023/06/19 03:35:49;;;;;;;;;;;;;;;22.63;55.42;100841.09;5003521;28;4221;-66
2023/06/19 03:38:27;;;;;;;;;;;;;;;22.68;55.44;100850.63;5003849;28;4983;-67
2023/06/19 03:40:54;;;;;;;;;;;;;;;22.63;55.12;100843.22;5003481;28;4189;-66
2023/06/19 03:43:20;;;;;;;;;;;;;;;22.71;54.91;100840.63;4986138;28;4216;-66
2023/06/19 03:45:47;;;;;;;;;;;;;;;22.68;54.96;100834.03;5003674;28;4059;-66
2023/06/19 03:48:13;;;;;;;;;;;;;;;22.67;55.02;100834.69;5002120;28;4157;-66
2023/06/19 03:50:39;;;;;;;;;;;;;;;22.66;55.07;100836.13;4985368;28;4176;-66
2023/06/19 03:53:06;;;;;;;;;;;;;;;22.70;55.30;100833.34;4998533;28;4066;-66
2023/06/19 03:55:33;;;;;;;;;;;;;;;22.73;54.92;100832.78;4985717;28;4233;-67
2023/06/19 03:57:59;;;;;;;;;;;;;;;22.70;54.91;100834.13;4988023;28;4247;-66
2023/06/19 04:00:26;;;;;;;;;;;;;;;22.73;55.06;100820.50;5002142;28;4205;-66
2023/06/19 04:02:52;;;;;;;;;;;;;;;22.71;54.95;100806.72;4982829;28;4169;-66
2023/06/19 04:05:19;;;;;;;;;;;;;;;22.72;55.05;100807.47;5003754;28;4311;-66
2023/06/19 04:07:46;;;;;;;;;;;;;;;22.67;55.25;100812.34;4987191;28;4087;-66
2023/06/19 04:10:13;;;;;;;;;;;;;;;22.63;55.07;100823.00;5001911;28;4339;-66
2023/06/19 04:12:40;;;;;;;;;;;;;;;22.57;55.22;100827.16;4986609;28;4137;-66
2023/06/19 04:15:07;;;;;;;;;;;;;;;22.66;54.77;100830.34;4987124;28;4122;-65
2023/06/19 04:17:33;;;;;;;;;;;;;;;22.63;55.08;100823.00;4984472;28;4030;-66
2023/06/19 04:20:00;;;;;;;;;;;;;;;22.62;55.17;100827.31;5002015;28;4342;-66
2023/06/19 04:22:26;;;;;;;;;;;;;;;22.56;55.28;100831.47;4983426;28;4203;-66
2023/06/19 04:24:53;;;;;;;;;;;;;;;22.62;55.56;100824.41;4985668;28;4127;-65
2023/06/19 04:27:19;;;;;;;;;;;;;;;22.58;55.61;100828.63;4984165;28;4106;-66
2023/06/19 04:29:46;;;;;;;;;;;;;;;22.56;55.74;100831.47;4963692;28;3977;-66
2023/06/19 04:32:12;;;;;;;;;;;;;;;22.50;55.52;100834.09;4987054;28;4134;-66
2023/06/19 04:34:39;;;;;;;;;;;;;;;22.61;55.17;100825.81;4986809;28;4100;-66
2023/06/19 04:37:05;;;;;;;;;;;;;;;22.65;55.21;100831.75;4985609;28;4174;-66
2023/06/19 04:39:32;;;;;;;;;;;;;;;22.58;55.17;100830.78;4985062;28;4156;-66
2023/06/19 04:41:58;;;;;;;;;;;;;;;22.55;55.49;100841.50;4986467;28;4115;-66
2023/06/19 04:44:24;;;;;;;;;;;;;;;22.51;55.77;100847.13;4987268;28;4149;-66
2023/06/19 04:46:51;;;;;;;;;;;;;;;22.52;55.48;100848.63;4987716;28;4141;-65
2023/06/19 04:49:17;;;;;;;;;;;;;;;22.50;55.58;100851.44;4986251;28;4240;-67
2023/06/19 04:51:46;;;;;;;;;;;;;;;22.61;55.35;100854.69;4983934;28;4002;-67
2023/06/19 04:54:12;;;;;;;;;;;;;;;22.50;55.59;100851.44;4983616;28;4150;-67
2023/06/19 04:56:38;;;;;;;;;;;;;;;22.56;55.58;100862.44;4986938;28;4062;-67
2023/06/19 04:59:05;;;;;;;;;;;;;;;22.54;55.55;100860.25;4988019;28;4268;-66
2023/06/19 05:01:31;;;;;;;;;;;;;;;22.57;55.68;100855.28;4987324;28;4221;-67
2023/06/19 05:03:59;;;;;;;;;;;;;;;22.52;55.66;100859.44;4990094;28;4232;-66
2023/06/19 05:06:26;;;;;;;;;;;;;;;22.53;55.71;100866.66;4985408;28;4156;-67
2023/06/19 05:08:52;;;;;;;;;;;;;;;22.48;55.85;100862.16;4987824;28;4040;-67
2023/06/19 05:11:18;;;;;;;;;;;;;;;22.52;55.68;100860.16;4987126;28;4167;-67
2023/06/19 05:13:45;;;;;;;;;;;;;;;22.49;56.10;100861.47;4986328;28;4252;-67
2023/06/19 05:16:15;;;;;;;;;;;;;;;22.44;55.87;100859.84;4986297;28;4344;-70
2023/06/19 05:18:43;;;;;;;;;;;;;;;22.16;56.84;100865.97;4984538;28;4105;-72
2023/06/19 05:21:10;;;;;;;;;;;;;;;22.02;57.56;100856.03;4975294;28;4048;-71
2023/06/19 05:23:38;;;;;;;;;;;;;;;21.93;58.38;100849.19;4979304;28;4418;-71
2023/06/19 05:26:04;;;;;;;;;;;;;;;21.89;58.33;100846.16;4979449;28;4062;-71
2023/06/19 05:28:30;;;;;;;;;;;;;;;21.89;58.38;100849.03;4984394;28;4501;-70
2023/06/19 05:30:57;;;;;;;;;;;;;;;21.90;58.04;100845.50;4981851;28;4214;-71
2023/06/19 05:33:23;;;;;;;;;;;;;;;21.83;58.20;100845.91;4985643;28;4540;-70
2023/06/19 05:35:53;;;;;;;;;;;;;;;21.89;58.08;100849.78;4984216;28;4412;-70
2023/06/19 05:38:20;;;;;;;;;;;;;;;21.87;58.31;100851.84;4980267;28;4367;-70
2023/06/19 05:40:46;;;;;;;;;;;;;;;21.90;58.08;100847.66;4984067;28;4003;-70
2023/06/19 05:43:13;;;;;;;;;;;;;;;21.91;57.99;100844.09;4986284;28;4062;-70
2023/06/19 05:45:39;;;;;;;;;;;;;;;21.88;58.17;100842.53;4988404;28;4013;-70
2023/06/19 05:48:06;;;;;;;;;;;;;;;21.92;58.68;100841.94;4984541;28;4275;-70
2023/06/19 05:50:32;;;;;;;;;;;;;;;21.92;58.44;100836.94;4984041;28;4169;-71
2023/06/19 05:52:59;;;;;;;;;;;;;;;21.96;58.45;100842.09;4980416;28;4163;-72
2023/06/19 05:55:27;;;;;;;;;;;;;;;22.05;57.95;100843.16;4982455;28;4335;-72
2023/06/19 05:57:53;;;;;;;;;;;;;;;21.95;58.62;100840.63;4990042;28;4030;-70
2023/06/19 06:00:20;;;;;;;;;;;;;;;22.05;57.98;100843.16;4975317;28;4058;-80
2023/06/19 06:02:46;;;;;;;;;;;;;;;21.87;58.30;100838.16;4981353;28;4187;-80
2023/06/19 06:05:13;;;;;;;;;;;;;;;21.81;58.95;100837.19;4984996;28;4225;-80
2023/06/19 06:07:39;;;;;;;;;;;;;;;21.88;58.97;100850.44;4976624;28;4025;-80
2023/06/19 06:10:07;;;;;;;;;;;;;;;21.92;58.69;100844.81;4978999;28;4237;-75
2023/06/19 06:12:33;;;;;;;;;;;;;;;21.96;58.28;100848.59;4981066;28;4097;-79
2023/06/19 06:15:04;;;;;;;;;;;;;;;21.96;58.37;100842.09;4980646;28;4194;-79
2023/06/19 06:17:30;;;;;;;;;;;;;;;21.96;58.39;100848.59;4976977;28;4028;-80
2023/06/19 06:19:57;;;;;;;;;;;;;;;22.50;58.18;100857.19;4987975;28;4065;-88
2023/06/19 06:22:23;;;;;;;;;;;;;;;22.67;57.18;100864.31;4994189;28;4097;-76
2023/06/19 06:24:50;;;;;;;;;;;;;;;22.72;57.12;100870.97;4999812;28;4047;-75
2023/06/19 06:27:16;;;;;;;;;;;;;;;22.76;57.25;100859.56;4999474;28;4143;-73
2023/06/19 06:29:42;;;;;;;;;;;;;;;22.76;57.10;100865.34;4996677;28;4143;-73
2023/06/19 06:32:09;;;;;;;;;;;;;;;22.84;57.12;100862.75;4993333;28;4147;-78
2023/06/19 06:34:35;;;;;;;;;;;;;;;22.82;57.43;100868.47;4994271;28;4290;-79
2023/06/19 06:37:02;;;;;;;;;;;;;;;22.83;57.40;100869.94;4997860;28;4214;-79
2023/06/19 06:39:32;;;;;;;;;;;;;;;22.95;56.94;100858.06;4997623;28;4373;-79
2023/06/19 06:41:58;;;;;;;;;;;;;;;22.90;56.88;100856.47;4993296;28;4143;-79
2023/06/19 06:44:25;;;;;;;;;;;;;;;22.97;56.40;100856.00;4989025;28;3960;-75
2023/06/19 06:46:52;;;;;;;;;;;;;;;23.05;55.97;100855.59;5006432;28;4032;-73
2023/06/19 06:49:18;;;;;;;;;;;;;;;23.26;55.50;100862.06;4999616;28;4257;-73
2023/06/19 06:51:45;;;;;;;;;;;;;;;23.31;55.55;100864.41;5000201;28;4420;-74
2023/06/19 06:54:12;;;;;;;;;;;;;;;23.33;55.12;100861.59;5000440;28;4014;-79
2023/06/19 06:56:38;;;;;;;;;;;;;;;23.23;55.07;100869.19;5003870;28;3910;-81
2023/06/19 06:59:04;;;;;;;;;;;;;;;23.27;55.12;100870.06;5023441;28;4120;-83
2023/06/19 07:01:31;;;;;;;;;;;;;;;23.22;55.25;100868.44;5006506;28;4195;-81
2023/06/19 07:03:57;;;;;;;;;;;;;;;22.93;55.68;100878.22;5002202;28;4114;-75
2023/06/19 07:06:24;;;;;;;;;;;;;;;22.88;56.08;100883.09;5009836;28;4584;-75
2023/06/19 07:08:50;;;;;;;;;;;;;;;22.88;56.22;100888.88;5007633;28;4270;-74
2023/06/19 07:11:16;;;;;;;;;;;;;;;22.98;56.34;100888.53;4999565;28;4311;-74
2023/06/19 07:13:43;;;;;;;;;;;;;;;23.21;56.50;100881.41;4991279;28;4124;-80
2023/06/19 07:16:09;;;;;;;;;;;;;;;23.26;56.44;100883.03;5012841;28;4177;-77
2023/06/19 07:18:38;;;;;;;;;;;;;;;23.31;56.64;100875.25;4997206;28;4238;-80
2023/06/19 07:21:04;;;;;;;;;;;;;;;23.26;56.26;100880.16;5003476;28;4293;-77
2023/06/19 07:23:31;;;;;;;;;;;;;;;23.37;56.11;100878.34;4999327;28;4495;-76
2023/06/19 07:25:57;;;;;;;;;;;;;;;23.46;54.98;100873.59;4998078;28;4142;-76
2023/06/19 07:28:24;;;;;;;;;;;;;;;23.40;55.07;100883.50;4995178;28;4253;-77
2023/06/19 07:30:52;;;;;;;;;;;;;;;23.40;55.73;100874.13;5009576;28;4142;-74
2023/06/19 07:33:18;;;;;;;;;;;;;;;23.35;56.04;100881.91;4992835;28;4100;-75
2023/06/19 07:35:44;;;;;;;;;;;;;;;23.52;55.61;100883.19;4989481;28;4195;-72
2023/06/19 07:38:11;;;;;;;;;;;;;;;23.56;55.28;100885.47;4987921;28;4101;-72
2023/06/19 07:40:37;;;;;;;;;;;;;;;23.64;55.09;100879.97;4997393;28;4347;-71
2023/06/19 07:43:04;;;;;;;;;;;;;;;23.38;54.94;100889.22;4995666;28;4837;-73
2023/06/19 07:45:31;;;;;;;;;;;;;;;23.23;55.34;100881.50;5013940;28;4218;-76
2023/06/19 07:47:57;;;;;;;;;;;;;;;23.20;55.69;100882.81;5000103;28;4173;-75
2023/06/19 07:50:24;;;;;;;;;;;;;;;23.19;55.38;100887.13;5009049;28;4186;-74
2023/06/19 07:52:53;;;;;;;;;;;;;;;23.19;55.77;100887.13;5002309;28;4480;-73
2023/06/19 07:55:19;;;;;;;;;;;;;;;23.13;56.15;100889.78;4993517;28;4633;-75
2023/06/19 07:57:46;;;;;;;;;;;;;;;23.16;56.30;100886.31;4983597;28;4395;-74
2023/06/19 08:00:12;;;;;;;;;;;;;;;23.14;55.81;100883.34;4994300;28;4446;-71
2023/06/19 08:02:39;;;;;;;;;;;;;;;23.27;56.23;100889.53;4995636;28;4178;-71
2023/06/19 08:05:09;;;;;;;;;;;;;;;23.32;56.12;100888.28;4989155;28;4156;-73
2023/06/19 08:07:35;;;;;;;;;;;;;;;23.32;56.56;100891.16;4995428;28;4565;-75
2023/06/19 08:10:03;;;;;;;;;;;;;;;23.42;56.34;100897.31;4994698;28;4501;-74
2023/06/19 08:12:40;;;;;;;;;;;;;;;23.41;56.86;100893.69;4992786;28;4121;-73
2023/06/19 08:15:07;;;;;;;;;;;;;;;23.37;56.95;100890.66;4987650;28;4991;-77
2023/06/19 08:17:34;;;;;;;;;;;;;;;23.35;56.31;100892.72;4986498;28;4263;-74
2023/06/19 08:20:01;;;;;;;;;;;;;;;23.35;57.19;100899.25;4990975;28;4183;-74
2023/06/19 08:22:27;;;;;;;;;;;;;;;23.35;56.97;100887.69;4994069;28;4230;-75
2023/06/19 08:24:54;;;;;;;;;;;;;;;23.49;56.53;100895.38;4991769;28;4421;-75
2023/06/19 08:27:20;;;;;;;;;;;;;;;23.46;56.49;100893.81;4995887;28;4137;-74
2023/06/19 08:29:46;;;;;;;;;;;;;;;23.51;56.46;100893.28;4989867;28;4000;-73
2023/06/19 08:32:13;;;;;;;;;;;;;;;23.48;56.00;100890.97;4993851;28;4343;-75
2023/06/19 08:34:39;;;;;;;;;;;;;;;23.52;56.13;100882.44;4992299;28;4216;-72
2023/06/19 08:37:06;;;;;;;;;;;;;;;23.62;55.30;100882.81;4988245;28;4144;-73
2023/06/19 08:39:32;;;;;;;;;;;;;;;23.70;55.32;100874.38;4991295;28;3990;-74
2023/06/19 08:41:59;;;;;;;;;;;;;;;23.73;55.09;100881.72;4983945;28;4066;-72
2023/06/19 08:44:25;;;;;;;;;;;;;;;23.42;55.68;100886.47;4987263;28;4169;-73
2023/06/19 08:46:52;;;;;;;;;;;;;;;23.18;57.75;100891.41;4986841;28;4376;-73
2023/06/19 08:49:18;;;;;;;;;;;;;;;23.27;57.08;100895.31;4983602;28;4088;-71
2023/06/19 08:51:45;;;;;;;;;;;;;;;23.41;56.62;100884.28;4995983;28;4417;-72
2023/06/19 08:54:13;;;;;;;;;;;;;;;23.47;55.88;100886.63;4988911;28;4494;-74
2023/06/19 08:56:41;;;;;;;;;;;;;;;23.59;56.24;100887.03;5011609;28;4512;-74
2023/06/19 08:59:11;;;;;;;;;;;;;;;23.91;55.31;100875.06;4991219;28;4171;-74
2023/06/19 09:01:38;;;;;;;;;;;;;;;23.96;55.03;100882.47;4999228;28;4241;-73
2023/06/19 09:04:08;;;;;;;;;;;;;;;23.68;57.12;100894.56;4994976;28;4162;-74
2023/06/19 09:06:37;;;;;;;;;;;;;;;23.55;57.02;100890.53;4993569;28;4130;-74
2023/06/19 09:09:06;;;;;;;;;;;;;;;23.55;57.59;100901.34;4991894;28;4079;-73
2023/06/19 09:11:33;;;;;;;;;;;;;;;23.58;56.12;100906.53;4993290;28;4067;-73
2023/06/19 09:13:59;;;;;;;;;;;;;;;23.66;55.97;100916.88;4993139;28;4438;-74
2023/06/19 09:16:35;;;;;;;;;;;;;;;23.67;56.34;100924.88;4995221;28;4079;-74
2023/06/19 09:19:02;;;;;;;;;;;;;;;23.74;56.76;100915.03;4993201;28;4222;-74
2023/06/19 09:21:28;;;;;;;;;;;;;;;23.88;55.89;100908.97;4996798;28;4201;-73
2023/06/19 09:23:55;;;;;;;;;;;;;;;23.97;55.58;100907.09;4997320;28;5305;-72
2023/06/19 09:26:28;;;;;;;;;;;;;;;23.99;55.58;100907.16;4998146;28;4523;-73
2023/06/19 09:28:54;;;;;;;;;;;;;;;24.04;55.81;100902.97;4985493;28;4417;-72
2023/06/19 09:31:30;;;;;;;;;;;;;;;24.00;55.17;100899.94;4992861;28;4881;-71
2023/06/19 09:33:57;;;;;;;;;;;;;;;23.64;56.00;100894.44;4989485;28;6418;-72
2023/06/19 09:36:24;;;;;;;;;;;;;;;23.69;56.35;100883.75;4986697;28;4000;-69
2023/06/19 09:38:50;;;;;;;;;;;;;;;23.75;56.53;100883.97;5004829;28;4169;-71
2023/06/19 09:41:17;;;;;;;;;;;;;;;23.79;56.75;100884.09;4984550;28;4048;-70
2023/06/19 09:43:43;;;;;;;;;;;;;;;23.74;57.07;100880.34;5002453;28;4022;-70
2023/06/19 09:46:11;;;;;;;;;;;;;;;23.73;56.67;100878.84;4986325;28;4224;-71
2023/06/19 09:48:40;;;;;;;;;;;;;;;23.72;56.86;100870.84;4985689;28;4176;-71
2023/06/19 09:51:30;;;;;;;;;;;;;;;23.71;56.96;100878.00;4986451;28;6760;-73
2023/06/19 09:53:58;;;;;;;;;;;;;;;23.90;56.63;100877.22;4986289;28;4326;-71
2023/06/19 09:56:25;;;;;;;;;;;;;;;23.92;56.46;100876.56;4997067;28;4248;-71
2023/06/19 09:58:52;;;;;;;;;;;;;;;24.06;56.33;100879.16;4996585;28;4192;-70
2023/06/19 10:01:19;;;;;;;;;;;;;;;24.07;55.79;100887.16;4993236;28;4060;-71
2023/06/19 10:03:46;;;;;;;;;;;;;;;23.80;55.90;100889.22;4994852;28;4133;-73
2023/06/19 10:06:13;;;;;;;;;;;;;;;23.68;56.54;100883.00;5007926;28;3989;-73
2023/06/19 10:08:40;;;;;;;;;;;;;;;23.71;56.36;100875.88;5000874;28;4102;-73
2023/06/19 10:11:06;;;;;;;;;;;;;;;23.62;56.59;100865.47;4994831;28;4263;-74
2023/06/19 10:13:33;;;;;;;;;;;;;;;23.58;57.36;100862.44;5015779;28;4352;-73
2023/06/19 10:16:00;;;;;;;;;;;;;;;23.67;57.56;100855.50;4993157;28;4214;-75
2023/06/19 10:18:26;;;;;;;;;;;;;;;23.65;58.42;100849.66;4981266;28;4306;-74
2023/06/19 10:20:56;;;;;;;;;;;;;;;23.68;58.50;100853.34;4983329;28;4100;-73
2023/06/19 10:23:23;;;;;;;;;;;;;;;23.71;58.98;100838.28;4981971;28;4424;-73
2023/06/19 10:25:53;;;;;;;;;;;;;;;23.91;57.99;100823.00;5000020;28;4202;-72
2023/06/19 10:28:23;;;;;;;;;;;;;;;23.76;58.66;100821.84;4983637;28;3978;-73
2023/06/19 10:30:54;;;;;;;;;;;;;;;23.76;58.90;100813.91;4981518;28;4120;-72
2023/06/19 10:33:21;;;;;;;;;;;;;;;24.02;58.59;100804.56;4974596;28;5318;-73
2023/06/19 10:35:47;;;;;;;;;;;;;;;24.12;58.55;100799.09;4981270;28;4154;-74
2023/06/19 10:38:14;;;;;;;;;;;;;;;24.22;57.89;100796.50;4984376;28;4131;-75
2023/06/19 10:40:41;;;;;;;;;;;;;;;24.20;58.26;100796.44;4980028;28;4222;-74
2023/06/19 10:43:07;;;;;;;;;;;;;;;24.13;58.09;100797.66;4980358;28;4320;-73
2023/06/19 10:45:33;;;;;;;;;;;;;;;24.18;57.49;100798.53;4987142;28;4176;-73
2023/06/19 10:48:01;;;;;;;;;;;;;;;24.14;57.45;100801.28;4979485;28;4127;-73
2023/06/19 10:50:27;;;;;;;;;;;;;;;24.09;57.03;100800.44;4994011;28;4257;-73
2023/06/19 10:52:54;;;;;;;;;;;;;;;24.09;56.50;100803.31;4988126;28;4516;-70
2023/06/19 10:55:21;;;;;;;;;;;;;;;24.29;56.58;100814.03;4982398;28;4364;-72
2023/06/19 10:57:48;;;;;;;;;;;;;;;24.39;56.72;100817.94;4984763;28;4339;-72
2023/06/19 11:00:27;;;;;;;;;;;;;;;24.11;56.16;100817.84;4983791;28;3943;-71
2023/06/19 11:02:55;;;;;;;;;;;;;;;24.21;56.15;100814.53;4979314;28;4252;-72
2023/06/19 11:05:22;;;;;;;;;;;;;;;24.25;55.62;100815.38;4984971;28;4259;-74
2023/06/19 11:07:52;;;;;;;;;;;;;;;24.31;55.45;100822.78;4994847;28;3950;-74
2023/06/19 11:10:19;;;;;;;;;;;;;;;24.36;55.32;100824.38;4987670;28;5105;-70
2023/06/19 11:12:45;;;;;;;;;;;;;;;24.24;55.16;100819.69;4994739;28;4337;-72
2023/06/19 11:15:12;;;;;;;;;;;;;;;24.11;55.65;100822.91;5000841;28;4207;-73
2023/06/19 11:17:38;;;;;;;;;;;;;;;24.08;55.49;100821.38;4999650;28;4249;-72
2023/06/19 11:20:09;;;;;;;;;;;;;;;24.05;55.79;100823.44;5002965;28;4048;-71
2023/06/19 11:22:36;;;;;;;;;;;;;;;24.07;55.79;100817.72;4996255;28;4046;-75
2023/06/19 11:25:02;;;;;;;;;;;;;;;24.25;55.23;100814.66;4991476;28;4367;-75
2023/06/19 11:27:30;;;;;;;;;;;;;;;24.27;55.09;100806.03;4996238;28;3993;-75
2023/06/19 11:30:00;;;;;;;;;;;;;;;24.35;54.89;100812.06;5000478;28;4452;-73
2023/06/19 11:32:40;;;;;;;;;;;;;;;24.40;54.91;100812.94;4994370;28;4061;-74
2023/06/19 11:35:08;;;;;;;;;;;;;;;24.41;54.95;100814.38;4983878;28;4148;-78
2023/06/19 11:37:35;;;;;;;;;;;;;;;24.27;54.94;100811.09;4987549;28;4695;-75
2023/06/19 11:40:09;;;;;;;;;;;;;;;24.30;54.95;100821.28;5000203;28;4470;-75
2023/06/19 11:42:43;;;;;;;;;;;;;;;24.38;54.68;100815.75;4990242;28;4155;-84
2023/06/19 11:45:10;;;;;;;;;;;;;;;24.27;54.92;100811.09;4982063;28;4881;-80
2023/06/19 11:47:37;;;;;;;;;;;;;;;24.35;55.11;100822.88;4993161;28;4547;-74
2023/06/19 11:50:04;;;;;;;;;;;;;;;24.37;54.62;100820.81;5010512;28;3972;-78
2023/06/19 11:52:31;;;;;;;;;;;;;;;24.30;54.69;100821.28;5018140;28;4003;-76
2023/06/19 11:54:57;;;;;;;;;;;;;;;24.33;54.51;100817.06;5013234;28;4001;-77
2023/06/19 11:57:23;;;;;;;;;;;;;;;24.33;54.61;100814.16;5020516;28;4467;-77
2023/06/19 11:59:50;;;;;;;;;;;;;;;24.34;54.57;100807.69;5004251;28;4312;-74
2023/06/19 12:02:16;;;;;;;;;;;;;;;24.34;54.78;100812.72;4991374;28;3993;-73
2023/06/19 12:04:43;;;;;;;;;;;;;;;24.37;54.78;100808.47;4996126;28;4217;-76
2023/06/19 12:07:11;;;;;;;;;;;;;;;24.43;54.79;100799.97;5005334;28;4316;-75
2023/06/19 12:09:38;;;;;;;;;;;;;;;24.33;54.46;100788.13;4992163;28;4377;-76
2023/06/19 12:12:05;;;;;;;;;;;;;;;24.24;54.91;100790.78;4994070;28;4090;-76
2023/06/19 12:14:32;;;;;;;;;;;;;;;24.30;55.12;100798.16;4993345;28;4034;-77
2023/06/19 12:16:58;;;;;;;;;;;;;;;24.40;54.95;100795.56;4989228;28;4931;-76
2023/06/19 12:19:25;;;;;;;;;;;;;;;24.44;54.50;100796.41;4990590;28;4061;-74
2023/06/19 12:21:52;;;;;;;;;;;;;;;24.40;54.90;100804.97;4989973;28;4138;-71
2023/06/19 12:24:18;;;;;;;;;;;;;;;24.31;54.87;100796.75;4982001;28;4369;-70
2023/06/19 12:26:44;;;;;;;;;;;;;;;24.36;55.12;100807.00;4983043;28;4003;-76
2023/06/19 12:29:11;;;;;;;;;;;;;;;24.52;54.88;100806.78;4983110;28;4038;-76
2023/06/19 12:31:37;;;;;;;;;;;;;;;24.51;54.50;100800.25;4984293;28;4027;-73
2023/06/19 12:34:05;;;;;;;;;;;;;;;24.64;54.28;100799.16;4985629;28;4488;-71
2023/06/19 12:36:52;;;;;;;;;;;;;;;24.57;54.33;100793.88;4983603;28;4341;-67
2023/06/19 12:39:19;;;;;;;;;;;;;;;24.58;54.12;100793.22;4992965;28;4440;-67
2023/06/19 12:41:45;;;;;;;;;;;;;;;24.56;54.32;100795.31;4986319;28;4113;-65
2023/06/19 12:44:12;;;;;;;;;;;;;;;24.59;54.14;100794.66;4995422;28;4128;-65
2023/06/19 12:46:39;;;;;;;;;;;;;;;24.57;53.98;100791.72;4989469;28;4051;-67